Time;durP1;ratioP1;P1;durP2;ratioP2;P2;SDS_P1;SDS_P2;PMS_P1;PMS_P2;Temp;Humidity;BMP_temperature;BMP_pressure;BME280_temperature;BME280_humidity;BME280_pressure;Samples;Min_cycle;Max_cycle;Signal;HPM_P1;HPM_P2
2021/01/18 00:00:30;;;;;;;;;;;;;;;;;;5054899;28;19941;-36
2021/01/18 00:02:56;;;;;;;;;;;;;;;;;;5054660;28;19952;-36
2021/01/18 00:05:22;;;;;;;;;;;;;;;;;;5054868;28;20008;-37
2021/01/18 00:07:48;;;;;;;;;;;;;;;;;;5054882;28;19916;-36
2021/01/18 00:10:14;;;;;;;;;;;;;;;;;;5054766;28;19962;-36
2021/01/18 00:12:40;;;;;;;;;;;;;;;;;;5054874;28;20015;-37
2021/01/18 00:15:06;;;;;;;;;;;;;;;;;;5054798;28;19970;-37
2021/01/18 00:17:32;;;;;;;;;;;;;;;;;;5054514;28;19955;-37
2021/01/18 00:19:57;;;;;;;;;;;;;;;;;;5054825;28;19936;-37
2021/01/18 00:22:23;;;;;;;;;;;;;;;;;;5054604;28;19978;-37
2021/01/18 00:24:49;;;;;;;;;;;;;;;;;;5054511;28;20033;-37
2021/01/18 00:27:15;;;;;;;;;;;;;;;;;;5054504;28;19919;-36
2021/01/18 00:29:41;;;;;;;;;;;;;;;;;;5054364;28;19932;-37
2021/01/18 00:32:07;;;;;;;;;;;;;;;;;;5054220;28;19924;-36
2021/01/18 00:34:33;;;;;;;;;;;;;;;;;;5054456;28;19916;-37
2021/01/18 00:36:59;;;;;;;;;;;;;;;;;;5054203;28;19913;-37
2021/01/18 00:39:25;;;;;;;;;;;;;;;;;;5054706;28;19955;-36
2021/01/18 00:41:51;;;;;;;;;;;;;;;;;;5054366;28;19912;-36
2021/01/18 00:44:17;;;;;;;;;;;;;;;;;;5054205;28;20007;-37
2021/01/18 00:46:43;;;;;;;;;;;;;;;;;;5054128;28;20352;-36
2021/01/18 00:49:09;;;;;;;;;;;;;;;;;;5054010;28;20360;-37
2021/01/18 00:51:35;;;;;;;;;;;;;;;;;;5054110;28;20432;-36
2021/01/18 00:54:01;;;;;;;;;;;;;;;;;;5054000;28;19920;-37
2021/01/18 00:56:26;;;;;;;;;;;;;;;;;;5053968;28;19916;-37
2021/01/18 00:58:52;;;;;;;;;;;;;;;;;;5054137;28;19909;-37
2021/01/18 01:01:18;;;;;;;;;;;;;;;;;;5053867;28;20234;-37
2021/01/18 01:03:44;;;;;;;;;;;;;;;;;;5052972;28;19916;-36
2021/01/18 01:06:10;;;;;;;;;;;;;;;;;;5053721;28;19908;-36
2021/01/18 01:08:36;;;;;;;;;;;;;;;;;;5053856;28;19909;-36
2021/01/18 01:11:02;;;;;;;;;;;;;;;;;;5053626;28;19909;-36
2021/01/18 01:13:28;;;;;;;;;;;;;;;;;;5053514;28;19970;-36
2021/01/18 01:15:54;;;;;;;;;;;;;;;;;;5053553;28;20005;-36
2021/01/18 01:18:20;;;;;;;;;;;;;;;;;;5053597;28;19909;-37
2021/01/18 01:20:46;;;;;;;;;;;;;;;;;;5053493;28;19909;-36
2021/01/18 01:23:12;;;;;;;;;;;;;;;;;;5053644;28;19909;-37
2021/01/18 01:25:38;;;;;;;;;;;;;;;;;;5053468;28;19909;-36
2021/01/18 01:28:04;;;;;;;;;;;;;;;;;;5053284;28;19999;-36
2021/01/18 01:30:30;;;;;;;;;;;;;;;;;;5053545;28;19963;-37
2021/01/18 01:32:56;;;;;;;;;;;;;;;;;;5052899;28;19928;-37
2021/01/18 01:35:22;;;;;;;;;;;;;;;;;;5053115;28;19912;-37
2021/01/18 01:37:48;;;;;;;;;;;;;;;;;;5053346;28;19952;-36
2021/01/18 01:40:14;;;;;;;;;;;;;;;;;;5053098;28;20245;-37
2021/01/18 01:42:39;;;;;;;;;;;;;;;;;;5053435;28;20505;-37
2021/01/18 01:45:05;;;;;;;;;;;;;;;;;;5052960;28;20264;-37
2021/01/18 01:47:31;;;;;;;;;;;;;;;;;;5052988;28;20314;-36
2021/01/18 01:49:57;;;;;;;;;;;;;;;;;;5052575;28;19921;-37
2021/01/18 01:52:23;;;;;;;;;;;;;;;;;;5052781;28;20034;-36
2021/01/18 01:54:49;;;;;;;;;;;;;;;;;;5052766;28;20050;-36
2021/01/18 01:57:15;;;;;;;;;;;;;;;;;;5052732;28;19909;-41
2021/01/18 01:59:41;;;;;;;;;;;;;;;;;;5052725;28;19909;-37
2021/01/18 02:02:07;;;;;;;;;;;;;;;;;;5052843;28;19909;-37
2021/01/18 02:04:33;;;;;;;;;;;;;;;;;;5052476;28;19995;-37
2021/01/18 02:06:59;;;;;;;;;;;;;;;;;;5052563;28;19916;-36
2021/01/18 02:09:25;;;;;;;;;;;;;;;;;;5052525;28;19931;-37
2021/01/18 02:11:51;;;;;;;;;;;;;;;;;;5052440;28;19912;-37
2021/01/18 02:14:17;;;;;;;;;;;;;;;;;;5051846;28;19994;-36
2021/01/18 02:16:43;;;;;;;;;;;;;;;;;;5052112;28;19970;-37
2021/01/18 02:19:08;;;;;;;;;;;;;;;;;;5052431;28;19909;-37
2021/01/18 02:21:34;;;;;;;;;;;;;;;;;;5052436;28;19952;-37
2021/01/18 02:24:00;;;;;;;;;;;;;;;;;;5052473;28;19909;-37
2021/01/18 02:26:26;;;;;;;;;;;;;;;;;;5052293;28;19942;-36
2021/01/18 02:28:52;;;;;;;;;;;;;;;;;;5052275;28;19909;-37
2021/01/18 02:31:18;;;;;;;;;;;;;;;;;;5052126;28;20022;-37
2021/01/18 02:33:44;;;;;;;;;;;;;;;;;;5052162;28;19920;-37
2021/01/18 02:36:10;;;;;;;;;;;;;;;;;;5052576;28;19912;-37
2021/01/18 02:38:37;;;;;;;;;;;;;;;;;;5052161;28;19916;-37
2021/01/18 02:41:03;;;;;;;;;;;;;;;;;;5051962;28;19955;-36
2021/01/18 02:43:29;;;;;;;;;;;;;;;;;;5052250;28;19909;-37
2021/01/18 02:45:54;;;;;;;;;;;;;;;;;;5052067;28;20387;-37
2021/01/18 02:48:20;;;;;;;;;;;;;;;;;;5051721;28;20388;-37
2021/01/18 02:50:46;;;;;;;;;;;;;;;;;;5052006;28;20268;-37
2021/01/18 02:53:12;;;;;;;;;;;;;;;;;;5052043;28;20406;-36
2021/01/18 02:55:38;;;;;;;;;;;;;;;;;;5052064;28;20383;-37
2021/01/18 02:58:04;;;;;;;;;;;;;;;;;;5051918;28;20415;-37
2021/01/18 03:00:30;;;;;;;;;;;;;;;;;;5051821;28;20348;-37
2021/01/18 03:02:56;;;;;;;;;;;;;;;;;;5051886;28;19960;-37
2021/01/18 03:07:58;;;;;;;;;;;;;;;;;;5066004;22;20395;-37
2021/01/18 03:10:24;;;;;;;;;;;;;;;;;;5051919;28;19947;-37
2021/01/18 03:12:50;;;;;;;;;;;;;;;;;;5051764;28;19917;-37
2021/01/18 03:15:16;;;;;;;;;;;;;;;;;;5051798;28;19909;-37
2021/01/18 03:17:41;;;;;;;;;;;;;;;;;;5051729;28;19970;-37
2021/01/18 03:20:08;;;;;;;;;;;;;;;;;;5051981;28;19912;-36
2021/01/18 03:22:34;;;;;;;;;;;;;;;;;;5051756;28;19958;-36
2021/01/18 03:25:00;;;;;;;;;;;;;;;;;;5051888;28;19912;-36
2021/01/18 03:27:26;;;;;;;;;;;;;;;;;;5054776;28;20367;-38
2021/01/18 03:29:52;;;;;;;;;;;;;;;;;;5055825;28;19909;-37
2021/01/18 03:32:18;;;;;;;;;;;;;;;;;;5055426;28;19943;-37
2021/01/18 03:34:44;;;;;;;;;;;;;;;;;;5055458;28;19909;-37
2021/01/18 03:37:10;;;;;;;;;;;;;;;;;;5055487;28;20003;-36
2021/01/18 03:39:36;;;;;;;;;;;;;;;;;;5055365;28;19908;-37
2021/01/18 03:42:02;;;;;;;;;;;;;;;;;;5055581;28;19962;-37
2021/01/18 03:44:27;;;;;;;;;;;;;;;;;;5055480;28;19916;-35
2021/01/18 03:46:53;;;;;;;;;;;;;;;;;;5055416;28;19908;-37
2021/01/18 03:49:19;;;;;;;;;;;;;;;;;;5055503;28;19959;-39
2021/01/18 03:51:45;;;;;;;;;;;;;;;;;;5054994;28;19909;-37
2021/01/18 03:54:11;;;;;;;;;;;;;;;;;;5055206;28;20379;-36
2021/01/18 03:56:37;;;;;;;;;;;;;;;;;;5055055;28;20411;-37
2021/01/18 03:59:03;;;;;;;;;;;;;;;;;;5055354;28;20385;-38
2021/01/18 04:01:29;;;;;;;;;;;;;;;;;;5055383;28;19909;-36
2021/01/18 04:03:55;;;;;;;;;;;;;;;;;;5055333;28;19909;-40
2021/01/18 04:06:21;;;;;;;;;;;;;;;;;;5054702;28;19967;-37
2021/01/18 04:08:47;;;;;;;;;;;;;;;;;;5055065;28;19909;-36
2021/01/18 04:11:13;;;;;;;;;;;;;;;;;;5054831;28;19909;-39
2021/01/18 04:13:39;;;;;;;;;;;;;;;;;;5054699;28;19971;-36
2021/01/18 04:16:05;;;;;;;;;;;;;;;;;;5054633;28;20279;-37
2021/01/18 04:18:31;;;;;;;;;;;;;;;;;;5054680;28;20271;-36
2021/01/18 04:20:56;;;;;;;;;;;;;;;;;;5054785;28;20331;-41
2021/01/18 04:23:22;;;;;;;;;;;;;;;;;;5054436;28;20279;-36
2021/01/18 04:25:48;;;;;;;;;;;;;;;;;;5054471;28;20272;-37
2021/01/18 04:28:14;;;;;;;;;;;;;;;;;;5054537;28;20360;-36
2021/01/18 04:30:40;;;;;;;;;;;;;;;;;;5054479;28;19917;-36
2021/01/18 04:33:06;;;;;;;;;;;;;;;;;;5054322;28;19917;-37
2021/01/18 04:35:32;;;;;;;;;;;;;;;;;;5054302;28;19991;-36
2021/01/18 04:37:58;;;;;;;;;;;;;;;;;;5053275;28;19932;-36
2021/01/18 04:40:24;;;;;;;;;;;;;;;;;;5054501;28;19912;-37
2021/01/18 04:42:50;;;;;;;;;;;;;;;;;;5054160;28;19909;-39
2021/01/18 04:45:16;;;;;;;;;;;;;;;;;;5054178;28;19932;-36
2021/01/18 04:47:42;;;;;;;;;;;;;;;;;;5054150;28;19909;-36
2021/01/18 04:50:08;;;;;;;;;;;;;;;;;;5054294;28;19916;-37
2021/01/18 04:52:34;;;;;;;;;;;;;;;;;;5053860;28;20328;-35
2021/01/18 04:55:00;;;;;;;;;;;;;;;;;;5054170;28;20283;-36
2021/01/18 04:57:26;;;;;;;;;;;;;;;;;;5053948;28;20263;-36
2021/01/18 04:59:51;;;;;;;;;;;;;;;;;;5053936;28;20355;-36
2021/01/18 05:02:17;;;;;;;;;;;;;;;;;;5054150;28;19908;-36
2021/01/18 05:04:43;;;;;;;;;;;;;;;;;;5054082;28;19916;-36
2021/01/18 05:07:09;;;;;;;;;;;;;;;;;;5053490;28;19921;-36
2021/01/18 05:09:35;;;;;;;;;;;;;;;;;;5054022;28;19909;-35
2021/01/18 05:12:01;;;;;;;;;;;;;;;;;;5053810;28;19912;-35
2021/01/18 05:14:27;;;;;;;;;;;;;;;;;;5053652;28;19908;-37
2021/01/18 05:16:53;;;;;;;;;;;;;;;;;;5053616;28;19940;-37
2021/01/18 05:19:20;;;;;;;;;;;;;;;;;;5053782;28;19908;-36
2021/01/18 05:21:46;;;;;;;;;;;;;;;;;;5053690;28;19915;-37
2021/01/18 05:24:12;;;;;;;;;;;;;;;;;;5053512;28;20322;-39
2021/01/18 05:26:38;;;;;;;;;;;;;;;;;;5053411;28;20008;-42
2021/01/18 05:29:04;;;;;;;;;;;;;;;;;;5053802;28;20263;-37
2021/01/18 05:31:30;;;;;;;;;;;;;;;;;;5053436;28;19915;-36
2021/01/18 05:33:56;;;;;;;;;;;;;;;;;;5053215;28;20019;-36
2021/01/18 05:36:22;;;;;;;;;;;;;;;;;;5053195;28;19963;-36
2021/01/18 05:38:48;;;;;;;;;;;;;;;;;;5053037;28;19908;-37
2021/01/18 05:41:14;;;;;;;;;;;;;;;;;;5053124;28;19909;-38
2021/01/18 05:43:40;;;;;;;;;;;;;;;;;;5053065;28;19955;-35
2021/01/18 05:46:07;;;;;;;;;;;;;;;;;;5053294;28;19991;-36
2021/01/18 05:48:33;;;;;;;;;;;;;;;;;;5052884;28;19915;-37
2021/01/18 05:51:01;;;;;;;;;;;;;;;;;;5052865;28;19909;-36
2021/01/18 05:53:27;;;;;;;;;;;;;;;;;;5052950;28;19924;-36
2021/01/18 05:55:53;;;;;;;;;;;;;;;;;;5053343;28;19909;-36
2021/01/18 05:58:19;;;;;;;;;;;;;;;;;;5052757;28;19909;-36
2021/01/18 06:00:45;;;;;;;;;;;;;;;;;;5052788;28;19915;-35
2021/01/18 06:03:11;;;;;;;;;;;;;;;;;;5052701;28;20421;-36
2021/01/18 06:05:37;;;;;;;;;;;;;;;;;;5052653;28;19909;-39
2021/01/18 06:08:03;;;;;;;;;;;;;;;;;;5052466;28;20012;-37
2021/01/18 06:10:29;;;;;;;;;;;;;;;;;;5052586;28;19932;-37
2021/01/18 06:12:55;;;;;;;;;;;;;;;;;;5052405;28;20353;-36
2021/01/18 06:15:22;;;;;;;;;;;;;;;;;;5051632;28;20216;-36
2021/01/18 06:17:50;;;;;;;;;;;;;;;;;;5052407;28;19944;-36
2021/01/18 06:20:15;;;;;;;;;;;;;;;;;;5052322;28;19996;-36
2021/01/18 06:22:41;;;;;;;;;;;;;;;;;;5052148;28;20022;-36
2021/01/18 06:25:07;;;;;;;;;;;;;;;;;;5052800;28;19913;-36
2021/01/18 06:27:33;;;;;;;;;;;;;;;;;;5052693;28;20364;-37
2021/01/18 06:29:59;;;;;;;;;;;;;;;;;;5052258;28;20352;-36
2021/01/18 06:32:25;;;;;;;;;;;;;;;;;;5052055;28;19917;-37
2021/01/18 06:34:51;;;;;;;;;;;;;;;;;;5052139;28;19963;-36
2021/01/18 06:37:17;;;;;;;;;;;;;;;;;;5052207;28;19909;-36
2021/01/18 06:39:43;;;;;;;;;;;;;;;;;;5052193;28;19944;-37
2021/01/18 06:42:09;;;;;;;;;;;;;;;;;;5052282;28;19916;-37
2021/01/18 06:44:35;;;;;;;;;;;;;;;;;;5052220;28;19912;-37
2021/01/18 06:47:01;;;;;;;;;;;;;;;;;;5052243;28;19913;-36
2021/01/18 06:49:27;;;;;;;;;;;;;;;;;;5051970;28;20355;-38
2021/01/18 06:51:53;;;;;;;;;;;;;;;;;;5052087;28;19909;-35
2021/01/18 06:54:19;;;;;;;;;;;;;;;;;;5051788;28;20271;-36
2021/01/18 06:56:45;;;;;;;;;;;;;;;;;;5051927;28;20291;-37
2021/01/18 06:59:11;;;;;;;;;;;;;;;;;;5051822;28;19908;-35
2021/01/18 07:01:37;;;;;;;;;;;;;;;;;;5055853;28;19909;-36
2021/01/18 07:04:03;;;;;;;;;;;;;;;;;;5058759;28;20034;-36
2021/01/18 07:06:32;;;;;;;;;;;;;;;;;;5058234;28;19924;-35
2021/01/18 07:08:58;;;;;;;;;;;;;;;;;;5058229;28;19913;-36
2021/01/18 07:11:24;;;;;;;;;;;;;;;;;;5058675;28;19935;-35
2021/01/18 07:13:50;;;;;;;;;;;;;;;;;;5058294;28;20333;-35
2021/01/18 07:16:16;;;;;;;;;;;;;;;;;;5057095;28;20278;-36
2021/01/18 07:18:42;;;;;;;;;;;;;;;;;;5058350;28;19908;-35
2021/01/18 07:21:08;;;;;;;;;;;;;;;;;;5058546;28;19916;-36
2021/01/18 07:23:34;;;;;;;;;;;;;;;;;;5058220;28;19912;-36
2021/01/18 07:25:59;;;;;;;;;;;;;;;;;;5058240;28;19909;-36
2021/01/18 07:28:25;;;;;;;;;;;;;;;;;;5058296;28;19952;-36
2021/01/18 07:30:51;;;;;;;;;;;;;;;;;;5058544;28;19909;-36
2021/01/18 07:33:17;;;;;;;;;;;;;;;;;;5058163;28;19924;-36
2021/01/18 07:35:43;;;;;;;;;;;;;;;;;;5058154;28;19909;-36
2021/01/18 07:38:09;;;;;;;;;;;;;;;;;;5058397;28;19913;-36
2021/01/18 07:40:35;;;;;;;;;;;;;;;;;;5057970;28;19909;-37
2021/01/18 07:43:01;;;;;;;;;;;;;;;;;;5058430;28;19916;-36
2021/01/18 07:45:27;;;;;;;;;;;;;;;;;;5058067;28;20322;-37
2021/01/18 07:47:53;;;;;;;;;;;;;;;;;;5058143;28;20283;-37
2021/01/18 07:50:19;;;;;;;;;;;;;;;;;;5058106;28;19909;-36
2021/01/18 07:52:45;;;;;;;;;;;;;;;;;;5057929;28;19917;-37
2021/01/18 07:55:11;;;;;;;;;;;;;;;;;;5058074;28;19931;-37
2021/01/18 07:57:38;;;;;;;;;;;;;;;;;;5058082;28;19943;-37
2021/01/18 08:00:04;;;;;;;;;;;;;;;;;;5058245;28;20280;-41
2021/01/18 08:02:30;;;;;;;;;;;;;;;;;;5058049;28;19909;-36
2021/01/18 08:04:56;;;;;;;;;;;;;;;;;;5057949;28;19965;-36
2021/01/18 08:07:21;;;;;;;;;;;;;;;;;;5057886;28;19968;-37
2021/01/18 08:09:47;;;;;;;;;;;;;;;;;;5058108;28;19908;-36
2021/01/18 08:12:13;;;;;;;;;;;;;;;;;;5057409;28;19917;-37
2021/01/18 08:14:39;;;;;;;;;;;;;;;;;;5055135;28;19970;-37
2021/01/18 08:17:06;;;;;;;;;;;;;;;;;;5054754;28;19917;-36
2021/01/18 08:19:32;;;;;;;;;;;;;;;;;;5054727;28;19912;-36
2021/01/18 08:21:58;;;;;;;;;;;;;;;;;;5054579;28;19962;-37
2021/01/18 08:24:23;;;;;;;;;;;;;;;;;;5054656;28;19909;-37
2021/01/18 08:26:49;;;;;;;;;;;;;;;;;;5054557;28;19963;-36
2021/01/18 08:29:15;;;;;;;;;;;;;;;;;;5054651;28;19913;-37
2021/01/18 08:31:41;;;;;;;;;;;;;;;;;;5054872;28;19908;-36
2021/01/18 08:34:07;;;;;;;;;;;;;;;;;;5054332;28;20001;-38
2021/01/18 08:36:33;;;;;;;;;;;;;;;;;;5054345;28;19915;-36
2021/01/18 08:38:59;;;;;;;;;;;;;;;;;;5054356;28;19909;-38
2021/01/18 08:41:25;;;;;;;;;;;;;;;;;;5054183;28;19909;-38
2021/01/18 08:43:51;;;;;;;;;;;;;;;;;;5054287;28;19909;-36
2021/01/18 08:46:17;;;;;;;;;;;;;;;;;;5054138;28;19909;-37
2021/01/18 08:48:43;;;;;;;;;;;;;;;;;;5054330;28;19909;-37
2021/01/18 08:51:09;;;;;;;;;;;;;;;;;;5054049;28;19934;-37
2021/01/18 08:53:35;;;;;;;;;;;;;;;;;;5053995;28;19916;-37
2021/01/18 08:56:01;;;;;;;;;;;;;;;;;;5053813;28;19909;-38
2021/01/18 08:58:27;;;;;;;;;;;;;;;;;;5054209;28;19909;-37
2021/01/18 09:00:53;;;;;;;;;;;;;;;;;;5053823;28;20374;-38
2021/01/18 09:03:19;;;;;;;;;;;;;;;;;;5053912;28;20453;-38
2021/01/18 09:05:44;;;;;;;;;;;;;;;;;;5053978;28;20367;-38
2021/01/18 09:08:13;;;;;;;;;;;;;;;;;;5053628;28;20364;-37
2021/01/18 09:10:39;;;;;;;;;;;;;;;;;;5053771;28;19908;-39
2021/01/18 09:13:05;;;;;;;;;;;;;;;;;;5053639;28;20343;-37
2021/01/18 09:15:31;;;;;;;;;;;;;;;;;;5053873;28;19909;-37
2021/01/18 09:17:57;;;;;;;;;;;;;;;;;;5053588;28;20360;-37
2021/01/18 09:20:23;;;;;;;;;;;;;;;;;;5053569;28;19909;-37
2021/01/18 09:22:49;;;;;;;;;;;;;;;;;;5053863;28;19909;-38
2021/01/18 09:25:15;;;;;;;;;;;;;;;;;;5052943;28;19909;-37
2021/01/18 09:27:41;;;;;;;;;;;;;;;;;;5053663;28;19909;-38
2021/01/18 09:30:06;;;;;;;;;;;;;;;;;;5053376;28;19975;-36
2021/01/18 09:32:32;;;;;;;;;;;;;;;;;;5053285;28;20261;-38
2021/01/18 09:34:58;;;;;;;;;;;;;;;;;;5053274;28;19915;-37
2021/01/18 09:37:24;;;;;;;;;;;;;;;;;;5053291;28;19963;-37
2021/01/18 09:39:50;;;;;;;;;;;;;;;;;;5052999;28;19908;-37
2021/01/18 09:42:16;;;;;;;;;;;;;;;;;;5053303;28;19909;-37
2021/01/18 09:44:42;;;;;;;;;;;;;;;;;;5053626;28;20008;-37
2021/01/18 09:47:08;;;;;;;;;;;;;;;;;;5053038;28;19962;-38
2021/01/18 09:49:34;;;;;;;;;;;;;;;;;;5053002;28;19913;-37
2021/01/18 09:52:00;;;;;;;;;;;;;;;;;;5052878;28;19909;-37
2021/01/18 09:54:26;;;;;;;;;;;;;;;;;;5052902;28;19920;-36
2021/01/18 09:56:52;;;;;;;;;;;;;;;;;;5052704;28;19913;-37
2021/01/18 09:59:18;;;;;;;;;;;;;;;;;;5052939;28;19909;-37
2021/01/18 10:01:44;;;;;;;;;;;;;;;;;;5051465;28;19909;-38
2021/01/18 10:04:09;;;;;;;;;;;;;;;;;;5052859;28;19961;-37
2021/01/18 10:06:36;;;;;;;;;;;;;;;;;;5052555;28;19927;-38
2021/01/18 10:09:02;;;;;;;;;;;;;;;;;;5052847;28;19908;-37
2021/01/18 10:11:30;;;;;;;;;;;;;;;;;;5052466;28;20280;-38
2021/01/18 10:13:56;;;;;;;;;;;;;;;;;;5052433;28;19928;-37
2021/01/18 10:16:22;;;;;;;;;;;;;;;;;;5052616;28;19908;-39
2021/01/18 10:18:49;;;;;;;;;;;;;;;;;;5052626;28;19909;-36
2021/01/18 10:21:15;;;;;;;;;;;;;;;;;;5052358;28;19909;-38
2021/01/18 10:23:41;;;;;;;;;;;;;;;;;;5052666;28;20311;-39
2021/01/18 10:26:06;;;;;;;;;;;;;;;;;;5052164;28;19917;-38
2021/01/18 10:28:32;;;;;;;;;;;;;;;;;;5052484;28;19909;-37
2021/01/18 10:30:58;;;;;;;;;;;;;;;;;;5052344;28;20000;-42
2021/01/18 10:33:24;;;;;;;;;;;;;;;;;;5052582;28;19923;-38
2021/01/18 10:35:52;;;;;;;;;;;;;;;;;;5052128;28;19909;-37
2021/01/18 10:38:18;;;;;;;;;;;;;;;;;;5051737;28;19909;-39
2021/01/18 10:40:45;;;;;;;;;;;;;;;;;;5051443;28;19956;-39
2021/01/18 10:43:11;;;;;;;;;;;;;;;;;;5052571;28;19909;-37
2021/01/18 10:45:36;;;;;;;;;;;;;;;;;;5052268;28;20256;-38
2021/01/18 10:48:02;;;;;;;;;;;;;;;;;;5052594;28;19916;-37
2021/01/18 10:50:28;;;;;;;;;;;;;;;;;;5052717;28;19909;-37
2021/01/18 10:52:54;;;;;;;;;;;;;;;;;;5052894;28;19917;-38
2021/01/18 10:55:21;;;;;;;;;;;;;;;;;;5053117;28;20355;-38
2021/01/18 10:57:47;;;;;;;;;;;;;;;;;;5052909;28;19909;-38
2021/01/18 11:00:13;;;;;;;;;;;;;;;;;;5052785;28;19908;-37
2021/01/18 11:02:39;;;;;;;;;;;;;;;;;;5051210;28;19909;-38
2021/01/18 11:05:06;;;;;;;;;;;;;;;;;;5050711;28;19909;-37
2021/01/18 11:07:33;;;;;;;;;;;;;;;;;;5052222;28;19920;-41
2021/01/18 11:09:59;;;;;;;;;;;;;;;;;;5052266;28;19909;-37
2021/01/18 11:12:25;;;;;;;;;;;;;;;;;;5052270;28;20015;-37
2021/01/18 11:14:51;;;;;;;;;;;;;;;;;;5052353;28;19944;-38
2021/01/18 11:17:18;;;;;;;;;;;;;;;;;;5052439;28;19970;-37
2021/01/18 11:19:44;;;;;;;;;;;;;;;;;;5052453;28;19909;-39
2021/01/18 11:22:10;;;;;;;;;;;;;;;;;;5052338;28;19995;-38
2021/01/18 11:24:36;;;;;;;;;;;;;;;;;;5052473;28;19916;-38
2021/01/18 11:27:02;;;;;;;;;;;;;;;;;;5052169;28;19913;-37
2021/01/18 11:29:30;;;;;;;;;;;;;;;;;;5052628;28;19913;-37
2021/01/18 11:31:56;;;;;;;;;;;;;;;;;;5052128;28;19908;-38
2021/01/18 11:34:22;;;;;;;;;;;;;;;;;;5052383;28;19917;-37
2021/01/18 11:36:48;;;;;;;;;;;;;;;;;;5052456;28;19916;-38
2021/01/18 11:39:14;;;;;;;;;;;;;;;;;;5052473;28;20339;-38
2021/01/18 11:41:40;;;;;;;;;;;;;;;;;;5052306;28;19916;-38
2021/01/18 11:44:06;;;;;;;;;;;;;;;;;;5051243;28;19915;-37
2021/01/18 11:46:33;;;;;;;;;;;;;;;;;;5051350;28;19908;-38
2021/01/18 11:48:59;;;;;;;;;;;;;;;;;;5055073;28;20363;-38
2021/01/18 11:51:25;;;;;;;;;;;;;;;;;;5055557;28;19916;-37
2021/01/18 11:53:51;;;;;;;;;;;;;;;;;;5055750;28;19921;-37
2021/01/18 11:56:17;;;;;;;;;;;;;;;;;;5055819;28;19909;-41
2021/01/18 11:58:43;;;;;;;;;;;;;;;;;;5056133;28;19975;-39
2021/01/18 12:01:09;;;;;;;;;;;;;;;;;;5056067;28;20368;-39
2021/01/18 12:03:35;;;;;;;;;;;;;;;;;;5055717;28;19954;-42
2021/01/18 12:06:01;;;;;;;;;;;;;;;;;;5055396;28;19938;-40
2021/01/18 12:08:27;;;;;;;;;;;;;;;;;;5055719;28;19908;-39
2021/01/18 12:10:53;;;;;;;;;;;;;;;;;;5055508;28;19936;-39
2021/01/18 12:13:18;;;;;;;;;;;;;;;;;;5055255;28;20066;-42
2021/01/18 12:15:44;;;;;;;;;;;;;;;;;;5055427;28;19908;-39
2021/01/18 12:18:10;;;;;;;;;;;;;;;;;;5055460;28;19962;-39
2021/01/18 12:20:37;;;;;;;;;;;;;;;;;;5055618;28;19913;-39
2021/01/18 12:23:03;;;;;;;;;;;;;;;;;;5055230;28;19909;-39
2021/01/18 12:25:29;;;;;;;;;;;;;;;;;;5055402;28;19916;-39
2021/01/18 12:27:56;;;;;;;;;;;;;;;;;;5055144;28;20053;-39
2021/01/18 12:30:22;;;;;;;;;;;;;;;;;;5055432;28;19909;-38
2021/01/18 12:32:48;;;;;;;;;;;;;;;;;;5054996;28;19940;-40
2021/01/18 12:35:14;;;;;;;;;;;;;;;;;;5055065;28;19908;-39
2021/01/18 12:37:40;;;;;;;;;;;;;;;;;;5055319;28;19908;-39
2021/01/18 12:40:06;;;;;;;;;;;;;;;;;;5054952;28;20265;-39
2021/01/18 12:42:32;;;;;;;;;;;;;;;;;;5054735;28;19909;-41
2021/01/18 12:44:58;;;;;;;;;;;;;;;;;;5055004;28;20003;-39
2021/01/18 12:47:24;;;;;;;;;;;;;;;;;;5054772;28;19919;-40
2021/01/18 12:55:19;;;;;;;;;;;;;;;;;;5054881;28;20007;-41
2021/01/18 12:57:45;;;;;;;;;;;;;;;;;;5054199;28;19944;-40
2021/01/18 13:00:11;;;;;;;;;;;;;;;;;;5053291;28;19909;-39
2021/01/18 13:02:37;;;;;;;;;;;;;;;;;;5054147;28;19913;-40
2021/01/18 13:05:03;;;;;;;;;;;;;;;;;;5054129;28;19909;-41
2021/01/18 13:07:29;;;;;;;;;;;;;;;;;;5053797;28;19920;-41
2021/01/18 13:09:58;;;;;;;;;;;;;;;;;;5053981;28;19985;-41
2021/01/18 13:12:24;;;;;;;;;;;;;;;;;;5053455;28;19913;-41
2021/01/18 13:14:50;;;;;;;;;;;;;;;;;;5053565;28;20011;-39
2021/01/18 13:17:16;;;;;;;;;;;;;;;;;;5053603;28;19908;-40
2021/01/18 13:19:42;;;;;;;;;;;;;;;;;;5053815;28;19908;-40
2021/01/18 13:22:09;;;;;;;;;;;;;;;;;;5053755;28;20382;-40
2021/01/18 13:24:35;;;;;;;;;;;;;;;;;;5053405;28;19916;-40
2021/01/18 13:27:00;;;;;;;;;;;;;;;;;;5053393;28;19908;-39
2021/01/18 13:29:26;;;;;;;;;;;;;;;;;;5053628;28;19918;-41
2021/01/18 13:31:52;;;;;;;;;;;;;;;;;;5053611;28;20003;-39
2021/01/18 13:34:18;;;;;;;;;;;;;;;;;;5053420;28;19923;-41
2021/01/18 13:36:44;;;;;;;;;;;;;;;;;;5053469;28;19916;-39
2021/01/18 13:39:10;;;;;;;;;;;;;;;;;;5053404;28;19909;-39
2021/01/18 13:41:36;;;;;;;;;;;;;;;;;;5053072;28;19963;-39
2021/01/18 13:44:02;;;;;;;;;;;;;;;;;;5053053;28;19913;-37
2021/01/18 13:46:28;;;;;;;;;;;;;;;;;;5053027;28;20007;-37
2021/01/18 13:48:54;;;;;;;;;;;;;;;;;;5053266;28;19908;-38
2021/01/18 13:51:20;;;;;;;;;;;;;;;;;;5053162;28;20264;-40
2021/01/18 13:53:46;;;;;;;;;;;;;;;;;;5053070;28;19939;-37
2021/01/18 13:56:12;;;;;;;;;;;;;;;;;;5052787;28;20322;-37
2021/01/18 13:58:38;;;;;;;;;;;;;;;;;;5052624;28;19908;-37
2021/01/18 14:01:04;;;;;;;;;;;;;;;;;;5052817;28;19916;-39
2021/01/18 14:03:30;;;;;;;;;;;;;;;;;;5052679;28;19952;-39
2021/01/18 14:05:56;;;;;;;;;;;;;;;;;;5052481;28;20020;-38
2021/01/18 14:08:22;;;;;;;;;;;;;;;;;;5052565;28;20007;-38
2021/01/18 14:10:48;;;;;;;;;;;;;;;;;;5052628;28;19909;-38
2021/01/18 14:13:14;;;;;;;;;;;;;;;;;;5052555;28;20337;-37
2021/01/18 14:15:40;;;;;;;;;;;;;;;;;;5052735;28;20399;-37
2021/01/18 14:18:06;;;;;;;;;;;;;;;;;;5052654;28;20472;-38
2021/01/18 14:20:32;;;;;;;;;;;;;;;;;;5052613;28;20352;-38
2021/01/18 14:22:58;;;;;;;;;;;;;;;;;;5052643;28;20371;-37
2021/01/18 14:25:24;;;;;;;;;;;;;;;;;;5052340;28;19909;-38
2021/01/18 14:27:50;;;;;;;;;;;;;;;;;;5052200;28;19938;-38
2021/01/18 14:30:16;;;;;;;;;;;;;;;;;;5052487;28;19913;-38
2021/01/18 14:32:42;;;;;;;;;;;;;;;;;;5052139;28;20012;-39
2021/01/18 14:35:08;;;;;;;;;;;;;;;;;;5052132;28;19916;-38
2021/01/18 14:37:34;;;;;;;;;;;;;;;;;;5052286;28;19909;-40
2021/01/18 14:40:04;;;;;;;;;;;;;;;;;;5052037;28;19909;-39
2021/01/18 14:42:30;;;;;;;;;;;;;;;;;;5052040;28;20348;-37
2021/01/18 14:44:56;;;;;;;;;;;;;;;;;;5052157;28;19909;-40
2021/01/18 14:47:22;;;;;;;;;;;;;;;;;;5052256;28;20318;-37
2021/01/18 14:49:48;;;;;;;;;;;;;;;;;;5051901;28;20340;-38
2021/01/18 14:52:14;;;;;;;;;;;;;;;;;;5051881;28;19962;-37
2021/01/18 14:54:42;;;;;;;;;;;;;;;;;;5051918;28;19967;-37
2021/01/18 14:57:07;;;;;;;;;;;;;;;;;;5052055;28;19909;-37
2021/01/18 14:59:33;;;;;;;;;;;;;;;;;;5051692;28;19935;-37
2021/01/18 15:01:59;;;;;;;;;;;;;;;;;;5051737;28;19920;-38
2021/01/18 15:04:25;;;;;;;;;;;;;;;;;;5051741;28;19908;-38
2021/01/18 15:06:51;;;;;;;;;;;;;;;;;;5051529;28;19921;-38
2021/01/18 15:09:17;;;;;;;;;;;;;;;;;;5051712;28;19955;-37
2021/01/18 15:11:46;;;;;;;;;;;;;;;;;;5051678;28;19916;-38
2021/01/18 15:14:13;;;;;;;;;;;;;;;;;;5051401;28;19947;-38
2021/01/18 15:16:40;;;;;;;;;;;;;;;;;;5052143;28;20193;-40
2021/01/18 15:19:06;;;;;;;;;;;;;;;;;;5051841;28;19913;-37
2021/01/18 15:21:32;;;;;;;;;;;;;;;;;;5051597;28;19916;-36
2021/01/18 15:23:58;;;;;;;;;;;;;;;;;;5055674;28;19909;-36
2021/01/18 15:26:24;;;;;;;;;;;;;;;;;;5055929;28;19908;-37
2021/01/18 15:28:50;;;;;;;;;;;;;;;;;;5055536;28;19909;-38
2021/01/18 15:31:16;;;;;;;;;;;;;;;;;;5055567;28;19909;-37
2021/01/18 15:33:43;;;;;;;;;;;;;;;;;;5056078;28;19917;-37
2021/01/18 15:36:09;;;;;;;;;;;;;;;;;;5056008;28;19909;-37
2021/01/18 15:38:35;;;;;;;;;;;;;;;;;;5055791;28;19913;-36
2021/01/18 15:41:01;;;;;;;;;;;;;;;;;;5055400;28;19916;-37
2021/01/18 15:43:27;;;;;;;;;;;;;;;;;;5055447;28;19959;-38
2021/01/18 15:45:53;;;;;;;;;;;;;;;;;;5055281;28;20365;-36
2021/01/18 15:48:19;;;;;;;;;;;;;;;;;;5055233;28;19909;-36
2021/01/18 15:50:45;;;;;;;;;;;;;;;;;;5055165;28;19916;-37
2021/01/18 15:53:11;;;;;;;;;;;;;;;;;;5055469;28;19923;-38
2021/01/18 15:55:37;;;;;;;;;;;;;;;;;;5055674;28;19943;-37
2021/01/18 15:58:03;;;;;;;;;;;;;;;;;;5055310;28;19913;-37
2021/01/18 16:00:29;;;;;;;;;;;;;;;;;;5055159;28;20425;-36
2021/01/18 16:02:55;;;;;;;;;;;;;;;;;;5055210;28;19987;-37
2021/01/18 16:05:21;;;;;;;;;;;;;;;;;;5055221;28;19908;-37
2021/01/18 16:07:47;;;;;;;;;;;;;;;;;;5054798;28;19924;-40
2021/01/18 16:10:13;;;;;;;;;;;;;;;;;;5055052;28;19971;-41
2021/01/18 16:12:39;;;;;;;;;;;;;;;;;;5054844;28;19928;-39
2021/01/18 16:15:04;;;;;;;;;;;;;;;;;;5054614;28;19909;-39
2021/01/18 16:17:30;;;;;;;;;;;;;;;;;;5054690;28;19916;-39
2021/01/18 16:19:56;;;;;;;;;;;;;;;;;;5054956;28;19916;-43
2021/01/18 16:22:22;;;;;;;;;;;;;;;;;;5054583;28;19908;-37
2021/01/18 16:24:48;;;;;;;;;;;;;;;;;;5054642;28;19909;-37
2021/01/18 16:27:14;;;;;;;;;;;;;;;;;;5054998;28;19916;-36
2021/01/18 16:29:40;;;;;;;;;;;;;;;;;;5054811;28;19909;-36
2021/01/18 16:32:07;;;;;;;;;;;;;;;;;;5054661;28;20405;-37
2021/01/18 16:34:37;;;;;;;;;;;;;;;;;;5053001;28;19917;-36
2021/01/18 16:37:03;;;;;;;;;;;;;;;;;;5054647;28;19935;-36
2021/01/18 16:39:28;;;;;;;;;;;;;;;;;;5054619;28;20269;-36
2021/01/18 16:41:54;;;;;;;;;;;;;;;;;;5054578;28;20447;-37
2021/01/18 16:44:20;;;;;;;;;;;;;;;;;;5054391;28;20359;-37